createdAt,value
2022-12-24T00:00:49.677Z,57.53
2022-12-24T00:01:49.554Z,54.09
2022-12-24T00:02:49.618Z,54.27
2022-12-24T00:03:49.590Z,60.08
2022-12-24T00:04:49.565Z,58.68
2022-12-24T00:05:49.484Z,60.39
2022-12-24T00:06:49.499Z,59.29
2022-12-24T00:07:49.511Z,59.44
2022-12-24T00:08:49.455Z,60.87
2022-12-24T00:09:49.478Z,58.00
2022-12-24T00:10:49.473Z,56.95
2022-12-24T00:11:49.445Z,56.81
2022-12-24T00:12:49.417Z,58.09
2022-12-24T00:13:49.423Z,53.77
2022-12-24T00:14:49.375Z,52.68
2022-12-24T00:15:49.413Z,55.60
2022-12-24T00:16:49.491Z,55.35
2022-12-24T00:17:49.383Z,56.06
2022-12-24T00:18:49.341Z,59.40
2022-12-24T00:19:49.338Z,55.06
2022-12-24T00:20:49.344Z,59.23
2022-12-24T00:21:49.297Z,53.29
2022-12-24T00:22:49.340Z,57.85
2022-12-24T00:23:49.314Z,53.44
2022-12-24T00:24:49.263Z,54.83
2022-12-24T00:25:49.281Z,56.42
2022-12-24T00:26:49.285Z,59.93
2022-12-24T00:27:49.254Z,51.32
2022-12-24T00:28:49.239Z,55.19
2022-12-24T00:29:49.217Z,49.36
2022-12-24T00:30:49.268Z,50.08
2022-12-24T00:31:49.206Z,51.88
2022-12-24T00:32:49.173Z,55.50
2022-12-24T00:33:49.184Z,49.95
2022-12-24T00:34:49.197Z,51.98
2022-12-24T00:35:49.152Z,57.80
2022-12-24T00:36:49.117Z,43.92
2022-12-24T00:37:49.140Z,48.86
2022-12-24T00:38:49.144Z,55.78
2022-12-24T00:39:49.102Z,53.09
2022-12-24T00:40:49.126Z,52.34
2022-12-24T00:41:49.144Z,52.88
2022-12-24T00:42:49.055Z,52.39
2022-12-24T00:43:49.108Z,54.48
2022-12-24T00:44:49.089Z,53.74
2022-12-24T00:45:49.109Z,49.76
2022-12-24T00:46:49.045Z,58.74
2022-12-24T00:47:49.021Z,55.52
2022-12-24T00:48:49.042Z,51.06
2022-12-24T00:49:48.992Z,54.06
2022-12-24T00:50:49.035Z,55.50
2022-12-24T00:51:49.001Z,54.75
2022-12-24T00:52:48.950Z,51.85
2022-12-24T00:53:48.969Z,54.41
2022-12-24T00:54:48.927Z,55.01
2022-12-24T00:55:48.920Z,54.32
2022-12-24T00:56:48.938Z,48.96
2022-12-24T00:57:48.907Z,45.90
2022-12-24T00:58:48.905Z,53.36
2022-12-24T00:59:48.874Z,54.06
2022-12-24T01:00:48.875Z,55.62
2022-12-24T01:01:48.997Z,54.50
2022-12-24T01:02:49.016Z,51.22
2022-12-24T01:03:49.009Z,57.37
2022-12-24T01:04:48.859Z,54.84
2022-12-24T01:05:48.803Z,55.94
2022-12-24T01:06:48.784Z,53.63
2022-12-24T01:07:48.786Z,57.07
2022-12-24T01:08:48.779Z,55.06
2022-12-24T01:09:48.751Z,53.99
2022-12-24T01:10:48.762Z,54.99
2022-12-24T01:11:48.748Z,53.46
2022-12-24T01:12:48.715Z,56.89
2022-12-24T01:13:48.732Z,56.85
2022-12-24T01:14:48.717Z,61.68
2022-12-24T01:15:48.740Z,57.25
2022-12-24T01:16:48.677Z,55.94
2022-12-24T01:17:48.687Z,58.64
2022-12-24T01:18:48.656Z,49.95
2022-12-24T01:19:48.657Z,58.21
2022-12-24T01:20:48.666Z,61.32
2022-12-24T01:21:48.622Z,55.71
2022-12-24T01:22:48.597Z,51.58
2022-12-24T01:23:48.602Z,54.95
2022-12-24T01:24:48.593Z,51.68
2022-12-24T01:25:48.584Z,56.83
2022-12-24T01:26:48.574Z,55.79
2022-12-24T01:27:48.561Z,51.44
2022-12-24T01:28:48.530Z,59.22
2022-12-24T01:29:48.527Z,56.87
2022-12-24T01:30:48.607Z,55.05
2022-12-24T01:31:48.521Z,44.30
2022-12-24T01:32:48.487Z,46.35
2022-12-24T01:33:48.494Z,50.72
2022-12-24T01:34:48.529Z,48.76
2022-12-24T01:35:48.481Z,57.22
2022-12-24T01:36:48.446Z,58.79
2022-12-24T01:37:48.441Z,53.44
2022-12-24T01:38:48.462Z,57.29
2022-12-24T01:39:48.432Z,54.96
2022-12-24T01:40:48.428Z,52.04
2022-12-24T01:41:48.414Z,50.12
2022-12-24T01:42:48.377Z,50.86
2022-12-24T01:43:48.389Z,51.66
2022-12-24T01:44:48.400Z,52.94
2022-12-24T01:45:48.383Z,58.74
2022-12-24T01:46:48.394Z,58.45
2022-12-24T01:47:48.342Z,54.56
2022-12-24T01:48:48.371Z,50.45
2022-12-24T01:49:48.318Z,53.06
2022-12-24T01:50:48.329Z,56.17
2022-12-24T01:51:48.295Z,44.72
2022-12-24T01:52:48.276Z,51.65
2022-12-24T01:53:48.333Z,55.13
2022-12-24T01:54:48.273Z,57.03
2022-12-24T01:55:48.276Z,53.91
2022-12-24T01:56:48.218Z,48.86
2022-12-24T01:57:48.248Z,52.03
2022-12-24T01:58:48.202Z,53.84
2022-12-24T01:59:48.216Z,50.06
2022-12-24T02:00:48.222Z,50.27
2022-12-24T02:01:48.257Z,51.07
2022-12-24T02:02:48.285Z,53.98
2022-12-24T02:03:48.177Z,55.04
2022-12-24T02:04:48.171Z,52.89
2022-12-24T02:05:48.159Z,57.55
2022-12-24T02:06:48.155Z,51.87
2022-12-24T02:07:48.121Z,49.07
2022-12-24T02:08:48.095Z,56.66
2022-12-24T02:09:48.089Z,58.07
2022-12-24T02:10:48.107Z,56.66
2022-12-24T02:11:48.068Z,55.16
2022-12-24T02:12:48.042Z,57.18
2022-12-24T02:13:48.070Z,48.11
2022-12-24T02:14:48.017Z,53.20
2022-12-24T02:15:48.090Z,53.55
2022-12-24T02:16:48.034Z,49.84
2022-12-24T02:17:48.032Z,47.53
2022-12-24T02:18:47.994Z,47.29
2022-12-24T02:19:47.981Z,53.91
2022-12-24T02:20:47.978Z,55.33
2022-12-24T02:21:47.953Z,51.86
2022-12-24T02:22:47.983Z,53.18
2022-12-24T02:23:47.951Z,49.82
2022-12-24T02:24:47.917Z,50.36
2022-12-24T02:25:47.930Z,61.66
2022-12-24T02:26:47.921Z,58.26
2022-12-24T02:27:47.893Z,56.75
2022-12-24T02:28:47.865Z,52.83
2022-12-24T02:29:47.908Z,52.26
2022-12-24T02:30:47.856Z,53.80
2022-12-24T02:31:47.896Z,50.07
2022-12-24T02:32:47.857Z,54.68
2022-12-24T02:33:47.820Z,51.95
2022-12-24T02:34:47.781Z,53.77
2022-12-24T02:35:47.821Z,54.90
2022-12-24T02:36:47.804Z,51.09
2022-12-24T02:37:47.786Z,54.23
2022-12-24T02:38:47.732Z,48.19
2022-12-24T02:39:47.744Z,53.89
2022-12-24T02:40:47.755Z,51.97
2022-12-24T02:41:47.725Z,51.73
2022-12-24T02:42:47.721Z,58.00
2022-12-24T02:43:47.692Z,49.88
2022-12-24T02:44:47.713Z,45.31
2022-12-24T02:45:47.673Z,50.55
2022-12-24T02:46:47.728Z,58.08
2022-12-24T02:47:47.668Z,57.98
2022-12-24T02:48:47.650Z,54.22
2022-12-24T02:49:47.630Z,54.68
2022-12-24T02:50:47.632Z,51.01
2022-12-24T02:51:47.619Z,48.00
2022-12-24T02:52:47.683Z,54.99
2022-12-24T02:53:47.606Z,54.90
2022-12-24T02:54:47.569Z,47.37
2022-12-24T02:55:47.570Z,49.46
2022-12-24T02:56:47.592Z,49.96
2022-12-24T02:57:47.544Z,54.47
2022-12-24T02:58:47.521Z,56.60
2022-12-24T02:59:47.510Z,53.45
2022-12-24T03:00:47.591Z,59.31
2022-12-24T03:01:47.626Z,53.56
2022-12-24T03:02:47.527Z,51.86
2022-12-24T03:03:47.482Z,51.74
2022-12-24T03:04:47.450Z,51.32
2022-12-24T03:05:47.445Z,56.07
2022-12-24T03:06:47.465Z,55.26
2022-12-24T03:07:47.456Z,50.03
2022-12-24T03:08:47.400Z,48.33
2022-12-24T03:09:47.415Z,56.85
2022-12-24T03:10:47.422Z,51.47
2022-12-24T03:11:47.399Z,51.97
2022-12-24T03:12:47.353Z,53.99
2022-12-24T03:13:47.366Z,52.62
2022-12-24T03:14:47.376Z,53.32
2022-12-24T03:15:47.347Z,57.71
2022-12-24T03:16:47.377Z,53.22
2022-12-24T03:17:47.337Z,47.67
2022-12-24T03:18:47.314Z,52.69
2022-12-24T03:19:47.289Z,55.50
2022-12-24T03:20:47.306Z,49.46
2022-12-24T03:21:47.270Z,47.93
2022-12-24T03:22:47.237Z,51.61
2022-12-24T03:23:47.254Z,45.50
2022-12-24T03:24:47.255Z,54.23
2022-12-24T03:25:47.204Z,48.54
2022-12-24T03:26:47.260Z,53.65
2022-12-24T03:27:47.209Z,48.82
2022-12-24T03:28:47.176Z,49.80
2022-12-24T03:29:47.190Z,47.53
2022-12-24T03:30:47.188Z,48.35
2022-12-24T03:31:47.238Z,52.02
2022-12-24T03:32:47.134Z,54.94
2022-12-24T03:33:47.169Z,55.38
2022-12-24T03:34:47.117Z,52.76
2022-12-24T03:35:47.129Z,46.58
2022-12-24T03:36:47.118Z,50.45
2022-12-24T03:37:47.097Z,51.89
2022-12-24T03:38:47.083Z,45.65
2022-12-24T03:39:47.080Z,52.49
2022-12-24T03:40:47.071Z,52.20
2022-12-24T03:41:47.062Z,46.94
2022-12-24T03:42:47.015Z,54.13
2022-12-24T03:43:47.009Z,52.56
2022-12-24T03:44:47.042Z,55.16
2022-12-24T03:45:47.054Z,53.59
2022-12-24T03:46:46.976Z,58.04
2022-12-24T03:47:47.015Z,54.61
2022-12-24T03:48:46.994Z,55.93
2022-12-24T03:49:46.954Z,59.25
2022-12-24T03:50:46.979Z,52.75
2022-12-24T03:51:46.929Z,48.90
2022-12-24T03:52:46.961Z,52.95
2022-12-24T03:53:46.914Z,57.01
2022-12-24T03:54:46.981Z,59.16
2022-12-24T03:55:46.927Z,57.26
2022-12-24T03:56:46.893Z,49.73
2022-12-24T03:57:46.881Z,52.73
2022-12-24T03:58:46.907Z,49.42
2022-12-24T03:59:46.932Z,55.39
2022-12-24T04:00:46.904Z,58.01
2022-12-24T04:01:47.065Z,53.40
2022-12-24T04:02:46.930Z,50.13
2022-12-24T04:03:46.824Z,50.59
2022-12-24T04:04:46.811Z,50.24
2022-12-24T04:05:46.808Z,48.23
2022-12-24T04:06:46.774Z,50.56
2022-12-24T04:07:46.747Z,50.07
2022-12-24T04:08:46.750Z,51.53
2022-12-24T04:09:46.744Z,48.34
2022-12-24T04:10:46.750Z,50.66
2022-12-24T04:11:46.724Z,48.31
2022-12-24T04:12:46.678Z,50.16
2022-12-24T04:13:46.675Z,48.38
2022-12-24T04:14:46.670Z,49.47
2022-12-24T04:15:46.678Z,46.69
2022-12-24T04:16:46.767Z,50.21
2022-12-24T04:17:46.664Z,51.78
2022-12-24T04:18:46.613Z,49.59
2022-12-24T04:19:46.612Z,46.35
2022-12-24T04:20:46.628Z,51.42
2022-12-24T04:21:46.595Z,49.74
2022-12-24T04:22:46.593Z,52.19
2022-12-24T04:23:46.594Z,51.44
2022-12-24T04:24:46.560Z,48.75
2022-12-24T04:25:46.547Z,55.39
2022-12-24T04:26:46.564Z,54.21
2022-12-24T04:27:46.526Z,53.13
2022-12-24T04:28:46.520Z,57.06
2022-12-24T04:29:46.516Z,51.99
2022-12-24T04:30:46.477Z,54.94
2022-12-24T04:31:46.488Z,54.74
2022-12-24T04:32:46.507Z,57.76
2022-12-24T04:33:46.457Z,55.43
2022-12-24T04:34:46.449Z,49.85
2022-12-24T04:35:46.440Z,52.82
2022-12-24T04:36:46.435Z,58.68
2022-12-24T04:37:46.417Z,55.09
2022-12-24T04:38:46.447Z,49.36
2022-12-24T04:39:46.407Z,51.99
2022-12-24T04:40:46.366Z,55.31
2022-12-24T04:41:46.375Z,54.34
2022-12-24T04:42:46.390Z,57.94
2022-12-24T04:43:46.363Z,56.78
2022-12-24T04:44:46.330Z,57.68
2022-12-24T04:45:46.344Z,55.03
2022-12-24T04:46:46.339Z,54.00
2022-12-24T04:47:46.319Z,50.41
2022-12-24T04:48:46.296Z,49.09
2022-12-24T04:49:46.305Z,55.40
2022-12-24T04:50:46.298Z,54.41
2022-12-24T04:51:46.262Z,53.07
2022-12-24T04:52:46.254Z,51.75
2022-12-24T04:53:46.265Z,53.54
2022-12-24T04:54:46.233Z,56.75
2022-12-24T04:55:46.223Z,60.16
2022-12-24T04:56:46.231Z,59.39
2022-12-24T04:57:51.177Z,49.56
2022-12-24T04:58:48.180Z,51.86
2022-12-24T04:59:46.203Z,52.77
2022-12-24T05:00:46.192Z,51.29
2022-12-24T05:01:46.184Z,49.49
2022-12-24T05:02:46.214Z,51.12
2022-12-24T05:03:46.140Z,47.32
2022-12-24T05:04:46.125Z,47.80
2022-12-24T05:05:46.113Z,46.21
2022-12-24T05:06:46.126Z,53.35
2022-12-24T05:07:46.093Z,51.61
2022-12-24T05:08:46.079Z,55.22
2022-12-24T05:09:46.115Z,46.79
2022-12-24T05:10:46.039Z,54.33
2022-12-24T05:11:46.076Z,52.52
2022-12-24T05:12:46.054Z,50.70
2022-12-24T05:13:47.500Z,56.68
2022-12-24T05:14:47.033Z,56.68
2022-12-24T05:15:45.992Z,55.90
2022-12-24T05:16:47.153Z,54.55
2022-12-24T05:17:46.006Z,54.85
2022-12-24T05:18:45.959Z,55.52
2022-12-24T05:19:45.975Z,58.38
2022-12-24T05:20:45.985Z,52.99
2022-12-24T05:21:45.942Z,55.03
2022-12-24T05:22:45.917Z,54.86
2022-12-24T05:23:45.948Z,55.87
2022-12-24T05:24:45.924Z,58.83
2022-12-24T05:25:45.885Z,55.28
2022-12-24T05:26:45.930Z,50.12
2022-12-24T05:27:50.883Z,50.01
2022-12-24T05:28:47.878Z,55.04
2022-12-24T05:29:45.873Z,50.68
2022-12-24T05:30:45.889Z,58.76
2022-12-24T05:31:45.830Z,54.48
2022-12-24T05:32:45.818Z,56.55
2022-12-24T05:33:45.829Z,56.05
2022-12-24T05:34:45.778Z,55.82
2022-12-24T05:35:45.929Z,50.67
2022-12-24T05:36:45.828Z,51.98
2022-12-24T05:37:45.770Z,52.18
2022-12-24T05:38:45.745Z,52.31
2022-12-24T05:39:45.742Z,53.65
2022-12-24T05:40:45.759Z,57.35
2022-12-24T05:41:45.744Z,52.27
2022-12-24T05:42:45.729Z,56.31
2022-12-24T05:43:45.729Z,54.66
2022-12-24T05:44:45.684Z,53.67
2022-12-24T05:45:45.715Z,55.90
2022-12-24T05:46:45.819Z,59.09
2022-12-24T05:47:45.684Z,54.39
2022-12-24T05:48:45.644Z,55.32
2022-12-24T05:49:45.629Z,51.96
2022-12-24T05:50:45.647Z,55.82
2022-12-24T05:51:45.630Z,53.79
2022-12-24T05:52:45.576Z,54.32
2022-12-24T05:53:45.614Z,48.78
2022-12-24T05:54:45.589Z,51.01
2022-12-24T05:55:45.568Z,52.19
2022-12-24T05:56:45.545Z,56.30
2022-12-24T05:57:45.569Z,56.57
2022-12-24T05:58:45.532Z,54.20
2022-12-24T05:59:45.536Z,53.53
2022-12-24T06:00:45.527Z,54.54
2022-12-24T06:01:45.745Z,55.03
2022-12-24T06:02:45.564Z,58.80
2022-12-24T06:03:45.488Z,57.10
2022-12-24T06:04:45.499Z,54.77
2022-12-24T06:05:45.444Z,51.27
2022-12-24T06:06:45.456Z,55.05
2022-12-24T06:07:45.426Z,55.84
2022-12-24T06:08:45.439Z,58.42
2022-12-24T06:09:45.408Z,55.81
2022-12-24T06:10:45.424Z,53.66
2022-12-24T06:11:45.402Z,50.72
2022-12-24T06:12:45.352Z,49.64
2022-12-24T06:13:45.379Z,52.72
2022-12-24T06:14:45.343Z,53.04
2022-12-24T06:15:45.355Z,54.64
2022-12-24T06:16:45.361Z,54.50
2022-12-24T06:17:45.331Z,54.46
2022-12-24T06:18:45.296Z,49.39
2022-12-24T06:19:45.304Z,50.62
2022-12-24T06:20:45.340Z,54.61
2022-12-24T06:21:45.310Z,54.66
2022-12-24T06:22:45.269Z,56.80
2022-12-24T06:23:45.254Z,56.97
2022-12-24T06:24:45.266Z,55.99
2022-12-24T06:25:45.235Z,57.10
2022-12-24T06:26:45.204Z,52.76
2022-12-24T06:27:45.204Z,53.35
2022-12-24T06:28:45.264Z,58.04
2022-12-24T06:29:45.191Z,57.77
2022-12-24T06:30:45.266Z,57.97
2022-12-24T06:31:45.314Z,51.84
2022-12-24T06:32:45.140Z,58.47
2022-12-24T06:33:45.126Z,56.22
2022-12-24T06:34:46.144Z,56.88
2022-12-24T06:35:45.135Z,51.76
2022-12-24T06:36:45.087Z,55.18
2022-12-24T06:37:45.117Z,56.99
2022-12-24T06:38:45.063Z,58.95
2022-12-24T06:39:45.079Z,57.60
2022-12-24T06:40:45.082Z,58.35
2022-12-24T06:41:45.065Z,61.34
2022-12-24T06:42:45.025Z,59.07
2022-12-24T06:43:45.032Z,57.98
2022-12-24T06:44:45.030Z,55.43
2022-12-24T06:45:45.002Z,54.50
2022-12-24T06:46:45.119Z,56.52
2022-12-24T06:47:44.995Z,58.37
2022-12-24T06:48:44.984Z,54.35
2022-12-24T06:49:44.975Z,51.87
2022-12-24T06:50:44.995Z,55.84
2022-12-24T06:51:44.955Z,57.95
2022-12-24T06:52:44.923Z,56.07
2022-12-24T06:53:44.928Z,53.04
2022-12-24T06:54:44.923Z,56.00
2022-12-24T06:55:44.900Z,49.84
2022-12-24T06:56:44.871Z,54.25
2022-12-24T06:57:44.872Z,55.60
2022-12-24T06:58:44.894Z,50.87
2022-12-24T06:59:44.855Z,52.01
2022-12-24T07:00:44.856Z,61.41
2022-12-24T07:01:44.974Z,55.45
2022-12-24T07:02:44.871Z,53.00
2022-12-24T07:03:44.934Z,53.63
2022-12-24T07:04:44.818Z,53.72
2022-12-24T07:05:44.791Z,51.57
2022-12-24T07:06:44.781Z,57.61
2022-12-24T07:07:44.763Z,57.94
2022-12-24T07:08:44.790Z,54.80
2022-12-24T07:09:44.755Z,53.43
2022-12-24T07:10:50.553Z,53.64
2022-12-24T07:11:46.740Z,57.81
2022-12-24T07:12:44.726Z,54.49
2022-12-24T07:13:44.724Z,53.64
2022-12-24T07:14:44.725Z,57.16
2022-12-24T07:15:44.744Z,58.48
2022-12-24T07:16:44.810Z,54.49
2022-12-24T07:17:44.748Z,52.12
2022-12-24T07:18:44.638Z,54.60
2022-12-24T07:19:44.657Z,57.48
2022-12-24T07:20:44.664Z,55.64
2022-12-24T07:21:44.626Z,56.41
2022-12-24T07:22:44.600Z,55.10
2022-12-24T07:23:44.614Z,55.50
2022-12-24T07:24:44.618Z,55.63
2022-12-24T07:25:44.595Z,57.18
2022-12-24T07:26:44.546Z,54.82
2022-12-24T07:27:44.558Z,59.52
2022-12-24T07:28:44.579Z,57.35
2022-12-24T07:29:44.539Z,55.73
2022-12-24T07:30:44.522Z,59.06
2022-12-24T07:31:44.656Z,56.25
2022-12-24T07:32:44.518Z,56.93
2022-12-24T07:33:44.490Z,57.37
2022-12-24T07:34:44.510Z,58.68
2022-12-24T07:35:44.481Z,55.20
2022-12-24T07:36:44.456Z,54.32
2022-12-24T07:37:44.459Z,58.66
2022-12-24T07:38:44.469Z,56.68
2022-12-24T07:39:44.441Z,60.62
2022-12-24T07:40:44.404Z,57.18
2022-12-24T07:41:44.436Z,56.59
2022-12-24T07:42:44.385Z,59.17
2022-12-24T07:43:44.383Z,58.88
2022-12-24T07:44:44.399Z,57.48
2022-12-24T07:45:44.367Z,60.05
2022-12-24T07:46:44.458Z,57.83
2022-12-24T07:47:44.365Z,58.05
2022-12-24T07:48:44.349Z,57.41
2022-12-24T07:49:44.325Z,58.77
2022-12-24T07:50:44.332Z,59.43
2022-12-24T07:51:44.333Z,58.47
2022-12-24T07:52:44.265Z,60.42
2022-12-24T07:53:44.271Z,59.86
2022-12-24T07:54:44.295Z,60.09
2022-12-24T07:55:44.265Z,57.37
2022-12-24T07:56:44.233Z,57.11
2022-12-24T07:57:44.232Z,59.20
2022-12-24T07:58:44.236Z,56.98
2022-12-24T07:59:44.215Z,53.11
2022-12-24T08:00:44.197Z,56.41
2022-12-24T08:01:44.365Z,55.59
2022-12-24T08:02:44.504Z,59.83
2022-12-24T08:03:44.368Z,60.20
2022-12-24T08:04:44.128Z,57.88
2022-12-24T08:05:45.172Z,61.17
2022-12-24T08:06:44.137Z,60.43
2022-12-24T08:07:44.122Z,54.49
2022-12-24T08:08:44.121Z,61.81
2022-12-24T08:09:44.121Z,56.89
2022-12-24T08:10:44.073Z,59.99
2022-12-24T08:11:51.354Z,61.34
2022-12-24T08:12:46.082Z,60.96
2022-12-24T08:13:44.048Z,60.30
2022-12-24T08:14:44.068Z,59.49
2022-12-24T08:15:44.045Z,59.90
2022-12-24T08:16:44.118Z,58.74
2022-12-24T08:17:44.002Z,59.75
2022-12-24T08:18:44.051Z,59.84
2022-12-24T08:19:43.995Z,60.25
2022-12-24T08:20:43.966Z,61.24
2022-12-24T08:21:44.007Z,58.10
2022-12-24T08:22:43.940Z,56.79
2022-12-24T08:23:43.960Z,58.03
2022-12-24T08:24:43.988Z,62.02
2022-12-24T08:25:43.939Z,61.71
2022-12-24T08:26:43.899Z,60.60
2022-12-24T08:27:43.922Z,58.84
2022-12-24T08:28:43.914Z,59.72
2022-12-24T08:29:43.881Z,61.30
2022-12-24T08:30:43.901Z,60.88
2022-12-24T08:31:43.909Z,63.40
2022-12-24T08:32:43.839Z,57.28
2022-12-24T08:33:43.875Z,58.40
2022-12-24T08:34:43.841Z,62.48
2022-12-24T08:35:43.824Z,60.18
2022-12-24T08:36:43.801Z,60.89
2022-12-24T08:37:43.813Z,58.65
2022-12-24T08:38:43.796Z,59.87
2022-12-24T08:39:43.847Z,61.19
2022-12-24T08:40:43.776Z,57.37
2022-12-24T08:41:43.752Z,58.43
2022-12-24T08:42:43.807Z,61.35
2022-12-24T08:43:43.725Z,58.86
2022-12-24T08:44:43.745Z,59.39
2022-12-24T08:45:43.759Z,61.01
2022-12-24T08:46:43.819Z,59.39
2022-12-24T08:47:43.684Z,59.35
2022-12-24T08:48:43.670Z,59.36
2022-12-24T08:49:43.665Z,58.48
2022-12-24T08:50:43.659Z,61.98
2022-12-24T08:51:43.668Z,59.78
2022-12-24T08:52:43.621Z,59.34
2022-12-24T08:53:43.669Z,60.04
2022-12-24T08:54:43.596Z,61.79
2022-12-24T08:55:43.595Z,63.42
2022-12-24T08:56:43.617Z,58.44
2022-12-24T08:57:43.603Z,60.07
2022-12-24T08:58:43.561Z,60.71
2022-12-24T08:59:43.555Z,60.04
2022-12-24T09:00:43.611Z,62.87
2022-12-24T09:01:43.778Z,60.98
2022-12-24T09:02:43.617Z,59.83
2022-12-24T09:03:43.673Z,55.53
2022-12-24T09:04:43.528Z,59.06
2022-12-24T09:05:43.488Z,58.92
2022-12-24T09:06:43.491Z,63.32
2022-12-24T09:07:43.455Z,59.41
2022-12-24T09:08:43.475Z,63.46
2022-12-24T09:09:43.455Z,60.09
2022-12-24T09:10:43.473Z,60.13
2022-12-24T09:11:43.442Z,60.90
2022-12-24T09:12:43.418Z,60.29
2022-12-24T09:13:43.394Z,63.60
2022-12-24T09:14:43.403Z,62.04
2022-12-24T09:15:43.402Z,62.33
2022-12-24T09:16:43.415Z,60.29
2022-12-24T09:17:43.402Z,60.68
2022-12-24T09:18:43.354Z,59.82
2022-12-24T09:19:43.334Z,64.33
2022-12-24T09:20:46.832Z,59.66
2022-12-24T09:21:44.335Z,59.42
2022-12-24T09:22:43.307Z,59.63
2022-12-24T09:23:43.294Z,61.04
2022-12-24T09:24:43.314Z,61.50
2022-12-24T09:25:43.245Z,62.60
2022-12-24T09:26:43.294Z,60.25
2022-12-24T09:27:43.266Z,61.83
2022-12-24T09:28:43.219Z,63.99
2022-12-24T09:29:43.222Z,62.80
2022-12-24T09:30:43.234Z,60.56
2022-12-24T09:31:43.259Z,59.32
2022-12-24T09:32:43.185Z,61.89
2022-12-24T09:33:43.219Z,58.18
2022-12-24T09:34:43.187Z,58.25
2022-12-24T09:35:43.169Z,60.95
2022-12-24T09:36:43.147Z,60.68
2022-12-24T09:37:43.147Z,59.83
2022-12-24T09:38:43.136Z,59.32
2022-12-24T09:39:44.162Z,61.17
2022-12-24T09:40:43.094Z,59.74
2022-12-24T09:41:43.117Z,61.30
2022-12-24T09:42:43.088Z,60.31
2022-12-24T09:43:43.073Z,61.49
2022-12-24T09:44:43.081Z,62.14
2022-12-24T09:45:43.095Z,56.27
2022-12-24T09:46:43.035Z,60.32
2022-12-24T09:47:43.027Z,63.93
2022-12-24T09:48:43.047Z,64.90
2022-12-24T09:49:42.995Z,59.32
2022-12-24T09:50:43.024Z,61.86
2022-12-24T09:51:43.000Z,60.72
2022-12-24T09:52:42.966Z,62.37
2022-12-24T09:53:42.960Z,60.30
2022-12-24T09:54:47.776Z,58.22
2022-12-24T09:55:43.945Z,60.77
2022-12-24T09:56:42.922Z,59.86
2022-12-24T09:57:42.936Z,56.77
2022-12-24T09:58:42.882Z,58.66
2022-12-24T09:59:42.890Z,59.51
2022-12-24T10:00:49.582Z,63.16
2022-12-24T10:01:45.035Z,60.72
2022-12-24T10:02:43.086Z,59.13
2022-12-24T10:03:42.903Z,61.30
2022-12-24T10:04:42.856Z,59.91
2022-12-24T10:05:42.832Z,59.75
2022-12-24T10:06:42.807Z,59.50
2022-12-24T10:07:42.821Z,57.10
2022-12-24T10:08:42.812Z,59.89
2022-12-24T10:09:42.778Z,62.10
2022-12-24T10:10:42.748Z,60.92
2022-12-24T10:11:44.347Z,61.88
2022-12-24T10:12:49.392Z,59.62
2022-12-24T10:13:44.719Z,62.33
2022-12-24T10:14:42.745Z,61.16
2022-12-24T10:15:42.740Z,59.93
2022-12-24T10:16:42.747Z,60.90
2022-12-24T10:17:42.705Z,61.84
2022-12-24T10:18:48.830Z,57.99
2022-12-24T10:19:44.675Z,58.03
2022-12-24T10:20:42.652Z,59.71
2022-12-24T10:21:42.673Z,57.66
2022-12-24T10:22:42.638Z,60.49
2022-12-24T10:23:42.631Z,61.37
2022-12-24T10:24:49.886Z,59.42
2022-12-24T10:25:44.628Z,57.39
2022-12-24T10:26:42.580Z,59.66
2022-12-24T10:27:42.581Z,58.01
2022-12-24T10:28:42.585Z,61.51
2022-12-24T10:29:42.561Z,60.71
2022-12-24T10:30:42.648Z,58.44
2022-12-24T10:31:42.570Z,57.94
2022-12-24T10:32:42.520Z,61.54
2022-12-24T10:33:42.535Z,60.06
2022-12-24T10:34:42.549Z,61.70
2022-12-24T10:35:42.540Z,62.88
2022-12-24T10:36:42.490Z,62.88
2022-12-24T10:37:42.480Z,60.89
2022-12-24T10:38:42.474Z,60.04
2022-12-24T10:39:42.453Z,58.90
2022-12-24T10:40:42.417Z,61.88
2022-12-24T10:41:42.416Z,59.04
2022-12-24T10:42:50.140Z,62.17
2022-12-24T10:43:44.422Z,60.15
2022-12-24T10:44:42.384Z,59.77
2022-12-24T10:45:42.450Z,59.55
2022-12-24T10:46:42.433Z,60.45
2022-12-24T10:47:42.370Z,62.07
2022-12-24T10:48:48.324Z,57.79
2022-12-24T10:49:44.358Z,62.61
2022-12-24T10:50:42.316Z,60.62
2022-12-24T10:51:42.325Z,61.32
2022-12-24T10:52:42.338Z,59.06
2022-12-24T10:53:42.279Z,62.37
2022-12-24T10:54:42.296Z,62.21
2022-12-24T10:55:42.291Z,60.10
2022-12-24T10:56:42.247Z,61.12
2022-12-24T10:57:42.250Z,61.14
2022-12-24T10:58:42.253Z,59.91
2022-12-24T10:59:42.216Z,60.51
2022-12-24T11:00:42.204Z,56.85
2022-12-24T11:01:42.371Z,56.87
2022-12-24T11:02:42.339Z,60.12
2022-12-24T11:03:42.201Z,59.65
2022-12-24T11:04:42.168Z,59.01
2022-12-24T11:05:42.168Z,60.80
2022-12-24T11:06:47.590Z,60.66
2022-12-24T11:07:44.141Z,59.32
2022-12-24T11:08:42.143Z,58.18
2022-12-24T11:09:42.120Z,58.61
2022-12-24T11:10:42.085Z,59.36
2022-12-24T11:11:42.083Z,57.40
2022-12-24T11:12:42.106Z,57.62
2022-12-24T11:13:42.057Z,59.34
2022-12-24T11:14:42.039Z,58.68
2022-12-24T11:15:42.096Z,61.09
2022-12-24T11:16:42.037Z,61.30
2022-12-24T11:17:42.029Z,61.45
2022-12-24T11:18:46.791Z,60.47
2022-12-24T11:19:44.003Z,61.50
2022-12-24T11:20:41.976Z,56.80
2022-12-24T11:21:41.974Z,56.08
2022-12-24T11:22:41.989Z,57.13
2022-12-24T11:23:41.979Z,61.23
2022-12-24T11:24:48.133Z,62.02
2022-12-24T11:25:43.939Z,57.52
2022-12-24T11:26:41.921Z,57.39
2022-12-24T11:27:41.929Z,58.09
2022-12-24T11:28:41.909Z,57.74
2022-12-24T11:29:41.897Z,59.17
2022-12-24T11:30:41.917Z,63.22
2022-12-24T11:31:41.877Z,59.20
2022-12-24T11:32:41.870Z,60.23
2022-12-24T11:33:41.822Z,56.82
2022-12-24T11:34:41.840Z,61.09
2022-12-24T11:35:41.807Z,60.20
2022-12-24T11:36:41.805Z,60.88
2022-12-24T11:37:41.816Z,57.84
2022-12-24T11:38:41.799Z,61.06
2022-12-24T11:39:41.777Z,61.00
2022-12-24T11:40:41.743Z,58.93
2022-12-24T11:41:41.757Z,60.53
2022-12-24T11:42:41.783Z,63.38
2022-12-24T11:43:41.741Z,62.11
2022-12-24T11:44:41.693Z,61.39
2022-12-24T11:45:41.704Z,60.04
2022-12-24T11:46:41.849Z,62.90
2022-12-24T11:47:41.698Z,60.64
2022-12-24T11:48:41.659Z,60.86
2022-12-24T11:49:41.677Z,61.79
2022-12-24T11:50:41.625Z,62.02
2022-12-24T11:51:41.628Z,59.60
2022-12-24T11:52:42.661Z,60.93
2022-12-24T11:53:41.632Z,57.78
2022-12-24T11:54:41.589Z,60.15
2022-12-24T11:55:41.600Z,60.04
2022-12-24T11:56:41.619Z,62.59
2022-12-24T11:57:41.542Z,59.99
2022-12-24T11:58:41.565Z,61.17
2022-12-24T11:59:41.540Z,59.34
2022-12-24T12:00:41.501Z,59.88
2022-12-24T12:01:41.609Z,59.38
2022-12-24T12:02:41.599Z,60.12
2022-12-24T12:03:42.529Z,61.57
2022-12-24T12:04:41.499Z,61.21
2022-12-24T12:05:41.483Z,61.64
2022-12-24T12:06:41.446Z,61.11
2022-12-24T12:07:41.454Z,60.78
2022-12-24T12:08:41.442Z,58.61
2022-12-24T12:09:42.439Z,59.92
2022-12-24T12:10:41.398Z,60.77
2022-12-24T12:11:41.405Z,62.65
2022-12-24T12:12:41.421Z,64.59
2022-12-24T12:13:41.409Z,65.90
2022-12-24T12:14:41.343Z,67.10
2022-12-24T12:15:41.437Z,63.90
2022-12-24T12:16:41.403Z,62.55
2022-12-24T12:17:41.333Z,62.71
2022-12-24T12:18:41.323Z,61.87
2022-12-24T12:19:41.327Z,60.20
2022-12-24T12:20:41.324Z,61.73
2022-12-24T12:21:41.296Z,62.70
2022-12-24T12:22:41.303Z,63.64
2022-12-24T12:23:41.268Z,62.36
2022-12-24T12:24:41.241Z,60.02
2022-12-24T12:25:41.259Z,63.65
2022-12-24T12:26:41.244Z,61.95
2022-12-24T12:27:41.247Z,57.21
2022-12-24T12:28:41.216Z,61.10
2022-12-24T12:29:41.217Z,62.57
2022-12-24T12:30:41.192Z,61.45
2022-12-24T12:31:41.204Z,59.19
2022-12-24T12:32:41.222Z,65.51
2022-12-24T12:33:41.162Z,63.35
2022-12-24T12:34:41.161Z,59.17
2022-12-24T12:35:41.120Z,60.70
2022-12-24T12:36:41.133Z,59.18
2022-12-24T12:37:41.109Z,59.52
2022-12-24T12:38:41.127Z,58.76
2022-12-24T12:39:41.115Z,58.27
2022-12-24T12:40:41.111Z,58.74
2022-12-24T12:41:41.073Z,61.43
2022-12-24T12:42:41.081Z,61.17
2022-12-24T12:43:41.061Z,59.02
2022-12-24T12:44:41.009Z,59.92
2022-12-24T12:45:41.025Z,59.22
2022-12-24T12:46:41.061Z,59.89
2022-12-24T12:47:41.020Z,60.06
2022-12-24T12:48:41.003Z,59.21
2022-12-24T12:49:40.981Z,59.97
2022-12-24T12:50:40.962Z,60.36
2022-12-24T12:51:40.943Z,61.95
2022-12-24T12:52:40.955Z,63.30